Terminal Aerodrome Forecast
Issued by NWS

Home | Current Version | Previous Version | Text Only | Print | Product List | Glossary On
Versions: 1 2 3 4 5 6 7 8 9 10 11 12 13 14 15 16 17 18 19 20 21 22 23 24 25 26 27 28 29 30 31 32 33 34 35 36 37 38 39 40 41 42 43 44 45 46 47 48 49 50
000
FTUS44 KHGX 301519
TAFIAH
TAFIAH
TAF AMD
KIAH 301519Z 3015/3118 VRB04KT P6SM VCSH SCT018 BKN035 BKN250
     FM301800 VRB04KT P6SM VCTS BKN035CB BKN250
      TEMPO 3019/3022 VRB10G20KT 3SM TSRA
     FM302200 VRB05KT P6SM VCTS BKN045CB BKN090 OVC200
      TEMPO 3022/3101 VRB10KT 3SM TSRA
     FM310300 VRB03KT P6SM VCSH SCT020 BKN120
     FM310900 34002KT P6SM VCTS SCT020CB BKN110
     FM311300 34006KT P6SM BKN100=

USA.gov is the U.S. government's official web portal to all federal, state and local government web resources and services.